createdAt,value
2022-10-15T00:00:14.665Z,7.05
2022-10-15T00:02:41.139Z,7.03
2022-10-15T00:05:08.070Z,7.50
2022-10-15T00:07:34.565Z,7.78
2022-10-15T00:10:01.136Z,7.38
2022-10-15T00:12:28.181Z,7.38
2022-10-15T00:14:54.754Z,8.13
2022-10-15T00:17:21.579Z,6.90
2022-10-15T00:19:48.331Z,7.32
2022-10-15T00:22:14.868Z,6.40
2022-10-15T00:24:41.602Z,7.13
2022-10-15T00:27:08.153Z,6.43
2022-10-15T00:29:34.692Z,6.18
2022-10-15T00:32:01.158Z,6.85
2022-10-15T00:34:27.717Z,6.20
2022-10-15T00:36:54.208Z,5.50
2022-10-15T00:39:20.699Z,6.05
2022-10-15T00:41:47.293Z,6.65
2022-10-15T00:44:25.833Z,5.38
2022-10-15T00:46:57.091Z,6.13
2022-10-15T00:49:35.866Z,6.30
2022-10-15T00:52:07.101Z,5.53
2022-10-15T00:54:40.213Z,5.50
2022-10-15T00:57:08.159Z,5.78
2022-10-15T00:59:39.300Z,6.50
2022-10-15T01:02:07.944Z,5.95
2022-10-15T01:04:35.714Z,5.65
2022-10-15T01:07:02.270Z,4.80
2022-10-15T01:09:28.829Z,5.37
2022-10-15T01:11:56.378Z,5.50
2022-10-15T01:17:26.948Z,5.30
2022-10-15T01:20:12.154Z,4.30
2022-10-15T01:23:03.878Z,4.35
2022-10-15T01:26:15.179Z,3.40
2022-10-15T01:29:09.606Z,3.40
2022-10-15T01:32:00.601Z,5.30
2022-10-15T01:34:51.493Z,3.05
2022-10-15T01:45:03.383Z,3.60
2022-10-15T01:47:36.306Z,3.60
2022-10-15T01:55:04.752Z,3.40
2022-10-15T01:57:34.604Z,3.70
2022-10-15T02:00:02.856Z,3.92
2022-10-15T02:07:47.769Z,3.70
2022-10-15T02:10:27.725Z,2.90
2022-10-15T02:13:02.152Z,2.58
2022-10-15T02:15:56.355Z,2.45
2022-10-15T02:18:48.740Z,2.20
2022-10-15T02:21:25.890Z,2.10
2022-10-15T02:24:13.524Z,2.03
2022-10-15T02:26:41.449Z,2.43
2022-10-15T02:29:12.673Z,2.53
2022-10-15T02:31:43.641Z,2.70
2022-10-15T02:34:15.530Z,2.15
2022-10-15T02:36:42.818Z,2.67
2022-10-15T02:39:17.533Z,2.15
2022-10-15T02:41:44.170Z,2.13
2022-10-15T02:44:10.707Z,2.25
2022-10-15T02:46:37.247Z,2.47
2022-10-15T02:49:03.931Z,2.57
2022-10-15T02:51:34.591Z,2.33
2022-10-15T02:54:02.595Z,2.63
2022-10-15T03:01:23.359Z,2.35
2022-10-15T03:03:51.012Z,2.42
2022-10-15T03:06:17.541Z,2.50
2022-10-15T03:08:44.462Z,2.40
2022-10-15T03:11:11.907Z,2.63
2022-10-15T03:13:39.589Z,2.70
2022-10-15T03:16:07.329Z,1.98
2022-10-15T03:18:36.807Z,2.50
2022-10-15T03:21:06.431Z,2.63
2022-10-15T03:26:00.380Z,1.83
2022-10-15T03:28:26.927Z,1.88
2022-10-15T03:30:53.579Z,2.45
2022-10-15T03:33:23.062Z,2.45
2022-10-15T03:35:52.691Z,2.30
2022-10-15T03:38:19.351Z,2.20
2022-10-15T03:40:46.506Z,2.50
2022-10-15T03:43:12.954Z,3.03
2022-10-15T03:45:39.489Z,2.42
2022-10-15T03:48:08.738Z,2.20
2022-10-15T03:50:35.415Z,2.60
2022-10-15T03:53:05.627Z,2.53
2022-10-15T03:55:33.045Z,2.40
2022-10-15T03:57:59.739Z,2.65
2022-10-15T04:00:26.389Z,2.60
2022-10-15T04:02:52.828Z,2.75
2022-10-15T04:05:19.349Z,2.20
2022-10-15T04:07:45.859Z,2.15
2022-10-15T04:10:12.397Z,2.73
2022-10-15T04:12:38.867Z,2.13
2022-10-15T04:15:05.913Z,2.38
2022-10-15T04:19:58.790Z,2.03
2022-10-15T04:22:25.670Z,1.93
2022-10-15T04:24:52.366Z,2.10
2022-10-15T04:27:18.834Z,2.20
2022-10-15T04:29:47.862Z,1.90
2022-10-15T04:32:15.318Z,1.90
2022-10-15T04:37:08.204Z,2.00
2022-10-15T04:39:34.718Z,1.60
2022-10-15T04:44:28.033Z,2.00
2022-10-15T04:46:54.537Z,1.70
2022-10-15T04:49:21.072Z,1.80
2022-10-15T04:51:47.555Z,1.83
2022-10-15T04:54:14.250Z,1.77
2022-10-15T04:56:40.765Z,1.65
2022-10-15T04:59:08.638Z,1.45
2022-10-15T05:01:35.650Z,1.92
2022-10-15T05:04:02.167Z,1.80
2022-10-15T05:06:28.723Z,1.90
2022-10-15T05:08:55.228Z,2.13
2022-10-15T05:11:24.151Z,1.70
2022-10-15T05:13:51.294Z,2.43
2022-10-15T05:16:24.225Z,1.77
2022-10-15T05:18:55.269Z,1.58
2022-10-15T05:21:22.198Z,1.40
2022-10-15T05:23:50.211Z,1.70
2022-10-15T05:26:22.628Z,1.50
2022-10-15T05:28:50.261Z,1.50
2022-10-15T05:31:22.363Z,1.70
2022-10-15T05:36:29.722Z,1.42
2022-10-15T05:38:59.174Z,1.55
2022-10-15T05:41:26.705Z,1.20
2022-10-15T05:43:55.687Z,1.20
2022-10-15T05:46:22.999Z,1.40
2022-10-15T05:48:53.683Z,1.45
2022-10-15T05:51:20.593Z,1.98
2022-10-15T05:53:51.983Z,1.45
2022-10-15T05:56:18.501Z,1.17
2022-10-15T05:58:44.961Z,1.23
2022-10-15T06:01:12.972Z,1.10
2022-10-15T06:03:41.477Z,1.33
2022-10-15T06:06:19.905Z,1.35
2022-10-15T06:08:46.939Z,1.60
2022-10-15T06:11:13.728Z,1.40
2022-10-15T06:13:41.851Z,1.90
2022-10-15T06:16:09.872Z,1.50
2022-10-15T06:18:38.541Z,1.33
2022-10-15T06:21:08.611Z,1.77
2022-10-15T06:26:03.716Z,0.82
2022-10-15T06:28:30.526Z,1.20
2022-10-15T06:30:59.808Z,1.38
2022-10-15T06:33:27.499Z,1.70
2022-10-15T06:35:54.389Z,1.73
2022-10-15T06:38:20.875Z,1.33
2022-10-15T07:52:08.630Z,1.20
2022-10-15T07:54:36.689Z,0.80
2022-10-15T07:57:03.781Z,1.20
2022-10-15T07:59:30.268Z,1.00
2022-10-15T08:02:02.127Z,1.10
2022-10-15T08:04:28.741Z,0.67
2022-10-15T08:06:55.269Z,0.70
2022-10-15T08:09:27.893Z,0.65
2022-10-15T08:11:54.417Z,1.00
2022-10-15T08:14:20.919Z,0.70
2022-10-15T08:16:47.477Z,0.60
2022-10-15T08:19:17.549Z,0.70
2022-10-15T08:24:17.084Z,0.60
2022-10-15T08:26:47.166Z,0.65
2022-10-15T08:29:13.813Z,0.90
2022-10-15T08:31:40.508Z,0.60
2022-10-15T08:34:11.147Z,0.80
2022-10-15T09:38:30.073Z,0.80
2022-10-15T10:11:53.416Z,0.35
2022-10-15T10:14:31.247Z,0.50
2022-10-15T10:17:13.411Z,0.25
2022-10-15T10:19:40.690Z,0.20
2022-10-15T10:22:13.847Z,0.10
2022-10-15T10:24:40.372Z,0.10
2022-10-15T10:27:29.335Z,0.20
2022-10-15T10:30:02.146Z,0.55
2022-10-15T10:32:31.777Z,1.52
2022-10-15T10:37:27.128Z,0.95
2022-10-15T10:39:57.124Z,1.02
2022-10-15T10:45:18.505Z,0.28
2022-10-15T10:47:45.405Z,0.35
2022-10-15T10:50:32.896Z,0.30
2022-10-15T10:53:17.334Z,1.10
2022-10-15T10:55:45.676Z,1.48
2022-10-15T10:58:23.379Z,0.88
2022-10-15T11:00:55.169Z,1.35
2022-10-15T11:03:34.906Z,1.80
2022-10-15T11:06:09.445Z,1.10
2022-10-15T11:08:56.124Z,2.85
2022-10-15T11:11:37.108Z,0.40
2022-10-15T11:14:26.019Z,2.35
2022-10-15T15:41:43.853Z,1.48
2022-10-15T15:44:12.107Z,1.58
2022-10-15T15:46:38.599Z,1.08
2022-10-15T15:49:05.092Z,3.50
2022-10-15T15:51:32.602Z,1.48
2022-10-15T15:53:59.166Z,1.08
2022-10-15T15:56:28.406Z,1.77
2022-10-15T15:58:54.917Z,2.00
2022-10-15T16:01:21.753Z,1.33
2022-10-15T16:03:48.615Z,2.97
2022-10-15T16:06:15.197Z,5.90
2022-10-15T16:08:41.698Z,3.83
2022-10-15T16:11:08.337Z,1.63
2022-10-15T16:13:35.470Z,2.58
2022-10-15T16:16:02.241Z,1.70
2022-10-15T16:18:28.706Z,1.13
2022-10-15T16:20:55.352Z,1.90
2022-10-15T16:23:21.889Z,2.70
2022-10-15T16:25:48.433Z,3.30
2022-10-15T16:28:15.038Z,2.20
2022-10-15T16:30:41.615Z,3.03
2022-10-15T16:35:39.713Z,2.47
2022-10-15T16:38:06.397Z,2.60
2022-10-15T16:40:34.628Z,3.20
2022-10-15T16:43:01.196Z,5.32
2022-10-15T16:45:27.716Z,4.43
2022-10-15T16:47:54.262Z,8.55
2022-10-15T16:50:20.856Z,6.35
2022-10-15T16:52:47.336Z,7.45
2022-10-15T16:55:14.082Z,15.02
2022-10-15T16:57:41.396Z,13.23
2022-10-15T17:00:08.650Z,9.57
2022-10-15T17:02:36.599Z,10.90
2022-10-15T17:05:03.115Z,9.35
2022-10-15T17:07:29.597Z,9.80
2022-10-15T17:09:56.598Z,9.02
2022-10-15T17:12:23.622Z,9.27
2022-10-15T17:14:51.579Z,8.65
2022-10-15T17:17:18.582Z,10.63
2022-10-15T17:19:45.122Z,9.13
2022-10-15T17:22:11.672Z,7.28
2022-10-15T17:24:38.184Z,8.45
2022-10-15T17:27:05.306Z,5.70
2022-10-15T17:29:33.411Z,5.72
2022-10-15T17:32:00.514Z,5.15
2022-10-15T17:34:27.996Z,5.18
2022-10-15T17:36:56.034Z,9.75
2022-10-15T17:39:22.601Z,9.27
2022-10-15T17:41:50.593Z,8.63
2022-10-15T17:44:17.472Z,8.20
2022-10-15T17:46:44.054Z,8.45
2022-10-15T17:49:11.283Z,8.02
2022-10-15T17:51:38.003Z,9.05
2022-10-15T17:54:04.641Z,7.22
2022-10-15T17:56:33.946Z,6.82
2022-10-15T17:59:02.800Z,5.38
2022-10-15T18:04:22.783Z,5.85
2022-10-15T18:06:49.269Z,5.25
2022-10-15T18:09:15.809Z,12.13
2022-10-15T18:11:42.402Z,19.60
2022-10-15T18:14:08.923Z,17.92
2022-10-15T18:16:35.536Z,15.65
2022-10-15T18:19:02.025Z,15.18
2022-10-15T18:21:28.824Z,13.32
2022-10-15T18:23:58.688Z,15.15
2022-10-15T18:26:25.390Z,10.30
2022-10-15T18:28:53.382Z,10.30
2022-10-15T18:31:21.161Z,13.38
2022-10-15T18:33:51.810Z,11.45
2022-10-15T18:36:23.923Z,14.32
2022-10-15T18:38:50.563Z,13.57
2022-10-15T18:41:18.671Z,10.85
2022-10-15T18:43:53.238Z,13.75
2022-10-15T18:46:20.354Z,14.30
2022-10-15T18:48:47.015Z,12.30
2022-10-15T18:51:13.904Z,10.10
2022-10-15T18:53:41.488Z,9.77
2022-10-15T18:56:09.503Z,9.98
2022-10-15T18:58:38.881Z,9.43
2022-10-15T19:01:24.672Z,11.48
2022-10-15T19:03:52.556Z,10.55
2022-10-15T19:06:20.521Z,9.98
2022-10-15T19:08:48.389Z,11.88
2022-10-15T19:11:16.281Z,12.63
2022-10-15T19:13:42.966Z,13.68
2022-10-15T19:16:09.626Z,12.85
2022-10-15T19:18:37.092Z,12.43
2022-10-15T19:21:04.964Z,13.35
2022-10-15T19:23:31.998Z,15.38
2022-10-15T19:25:58.643Z,14.63
2022-10-15T19:28:26.203Z,14.23
2022-10-15T19:31:01.587Z,14.80
2022-10-15T19:33:29.214Z,17.15
2022-10-15T19:35:56.342Z,19.88
2022-10-15T19:38:24.119Z,20.35
2022-10-15T19:40:51.415Z,21.48
2022-10-15T19:43:19.098Z,21.13
2022-10-15T19:45:46.807Z,25.75
2022-10-15T19:48:15.677Z,25.95
2022-10-15T19:50:44.240Z,40.45
2022-10-15T19:53:14.076Z,59.95
2022-10-15T19:55:40.703Z,57.95
2022-10-15T19:58:07.611Z,59.30
2022-10-15T20:00:34.899Z,57.53
2022-10-15T20:03:01.631Z,44.50
2022-10-15T20:05:28.291Z,39.42
2022-10-15T20:07:54.805Z,39.92
2022-10-15T20:10:25.561Z,32.22
2022-10-15T20:12:52.611Z,24.13
2022-10-15T20:15:19.145Z,19.80
2022-10-15T20:17:46.834Z,33.13
2022-10-15T20:20:13.397Z,27.95
2022-10-15T20:22:39.995Z,32.13
2022-10-15T20:25:06.672Z,30.67
2022-10-15T20:27:33.177Z,25.63
2022-10-15T20:30:00.714Z,22.45
2022-10-15T20:32:34.688Z,22.30
2022-10-15T20:35:02.933Z,21.75
2022-10-15T20:37:29.680Z,21.67
2022-10-15T20:42:23.943Z,21.27
2022-10-15T20:44:51.468Z,21.42
2022-10-15T20:47:18.143Z,23.67
2022-10-15T20:49:49.332Z,25.20
2022-10-15T20:52:16.227Z,26.95
2022-10-15T20:54:42.832Z,27.40
2022-10-15T20:57:10.510Z,25.02
2022-10-15T20:59:36.997Z,23.75
2022-10-15T21:02:03.686Z,19.45
2022-10-15T21:04:30.152Z,18.77
2022-10-15T21:06:57.216Z,20.75
2022-10-15T21:09:23.875Z,17.40
2022-10-15T21:11:50.376Z,16.67
2022-10-15T21:14:16.915Z,16.92
2022-10-15T21:16:43.485Z,22.10
2022-10-15T21:19:09.959Z,19.05
2022-10-15T21:21:36.521Z,17.20
2022-10-15T21:24:04.499Z,13.02
2022-10-15T21:26:31.006Z,13.68
2022-10-15T21:28:59.371Z,12.55
2022-10-15T21:31:27.296Z,12.48
2022-10-15T21:33:55.826Z,9.73
2022-10-15T21:36:27.787Z,9.10
2022-10-15T21:39:00.072Z,8.43
2022-10-15T21:41:28.509Z,7.20
2022-10-15T21:43:55.357Z,6.55
2022-10-15T21:46:22.136Z,5.88
2022-10-15T21:48:48.681Z,5.65
2022-10-15T21:51:19.245Z,4.95
2022-10-15T21:53:46.584Z,4.35
2022-10-15T21:56:13.510Z,4.78
2022-10-15T21:58:41.232Z,4.22
2022-10-15T22:01:15.732Z,5.13
2022-10-15T22:03:44.742Z,5.18
2022-10-15T22:06:12.673Z,4.97
2022-10-15T22:08:40.121Z,5.18
2022-10-15T22:11:13.537Z,6.70
2022-10-15T22:13:43.435Z,6.82
2022-10-15T22:16:11.401Z,7.30
2022-10-15T22:18:38.686Z,7.03
2022-10-15T22:21:23.227Z,6.75
2022-10-15T22:23:53.630Z,6.82
2022-10-15T22:26:23.003Z,6.00
2022-10-15T22:28:51.800Z,6.00
2022-10-15T22:31:18.936Z,4.60
2022-10-15T22:33:46.223Z,4.20
2022-10-15T22:36:20.304Z,4.00
2022-10-15T22:38:49.408Z,4.25
2022-10-15T22:41:16.491Z,4.27
2022-10-15T22:43:43.701Z,4.00
2022-10-15T22:46:10.576Z,3.60
2022-10-15T22:48:39.106Z,4.30
2022-10-15T22:51:07.864Z,4.35
2022-10-15T22:53:34.751Z,4.63
2022-10-15T22:56:03.636Z,5.03
2022-10-15T22:58:31.805Z,5.53
2022-10-15T23:01:19.091Z,5.47
2022-10-15T23:03:48.221Z,4.90
2022-10-15T23:06:15.683Z,4.30
2022-10-15T23:08:43.474Z,4.15
2022-10-15T23:11:21.603Z,3.42
2022-10-15T23:13:53.373Z,3.42
2022-10-15T23:16:22.553Z,2.90
2022-10-15T23:19:00.195Z,3.30
2022-10-15T23:22:03.434Z,3.70
2022-10-15T23:24:29.945Z,3.35
2022-10-15T23:26:56.548Z,3.30
2022-10-15T23:29:24.919Z,3.17
2022-10-15T23:31:52.759Z,3.22
2022-10-15T23:34:22.544Z,3.28
2022-10-15T23:36:50.042Z,2.90
2022-10-15T23:39:23.572Z,3.38
2022-10-15T23:41:50.446Z,4.90
2022-10-15T23:44:17.885Z,4.25
2022-10-15T23:46:44.831Z,3.13
2022-10-15T23:49:11.927Z,3.03
2022-10-15T23:51:38.539Z,2.45
2022-10-15T23:54:13.804Z,3.60
2022-10-15T23:56:40.559Z,3.47
2022-10-15T23:59:08.746Z,4.20
